Terminal Aerodrome Forecast
Issued by NWS

Home | Current Version | Previous Version | Text Only | Print | Product List | Glossary On
Versions: 1 2 3 4 5 6 7 8 9 10 11 12 13 14 15 16 17 18 19 20
000
FTUS41 KBOX 230543
TAFBAF
TAF
KBAF 230543Z 2306/2406 01017G24KT P6SM -SHRA BKN015 OVC035
      WS020/04040KT
     FM230900 01014G27KT 3SM SHRA BR OVC015
     FM231800 36012G25KT P6SM OVC015
     FM232200 35011G24KT 6SM BR OVC015=

USA.gov is the U.S. government's official web portal to all federal, state and local government web resources and services.